Time;durP1;ratioP1;P1;durP2;ratioP2;P2;SDS_P1;SDS_P2;PMS_P1;PMS_P2;Temp;Humidity;BMP_temperature;BMP_pressure;BME280_temperature;BME280_humidity;BME280_pressure;Samples;Min_cycle;Max_cycle;Signal;HPM_P1;HPM_P2
2022/09/05 00:01:55;;;;;;;4.65;3.00;;;19.70;91.60;;;;;;5117069;28;20043;-72
2022/09/05 00:04:29;;;;;;;5.53;3.20;;;19.70;91.70;;;;;;5116188;28;20048;-72
2022/09/05 00:07:04;;;;;;;4.40;2.40;;;19.70;91.90;;;;;;5117042;28;20104;-72
2022/09/05 00:09:51;;;;;;;6.70;3.30;;;19.60;91.70;;;;;;5116541;28;20452;-71
2022/09/05 00:12:18;;;;;;;4.43;3.03;;;19.70;92.00;;;;;;5116734;28;20394;-71
2022/09/05 00:14:59;;;;;;;6.38;3.10;;;19.50;91.90;;;;;;5098560;28;20101;-72
2022/09/05 00:17:35;;;;;;;5.10;2.80;;;19.60;92.00;;;;;;5116336;28;20096;-72
2022/09/05 00:20:14;;;;;;;5.88;2.88;;;19.50;92.00;;;;;;5098525;28;20105;-71
2022/09/05 00:22:53;;;;;;;6.80;3.08;;;19.50;92.40;;;;;;5116953;28;20044;-71
2022/09/05 00:25:36;;;;;;;3.80;2.92;;;19.50;92.20;;;;;;5097825;28;20051;-70
2022/09/05 00:28:11;;;;;;;4.45;2.67;;;19.50;92.30;;;;;;5116347;28;20048;-71
2022/09/05 00:30:46;;;;;;;5.05;3.20;;;19.40;92.30;;;;;;5116531;28;20124;-71
2022/09/05 00:33:26;;;;;;;8.10;3.17;;;19.40;92.40;;;;;;5098320;28;20047;-71
2022/09/05 00:36:13;;;;;;;5.57;3.70;;;19.40;92.50;;;;;;5098397;28;20065;-70
2022/09/05 00:38:50;;;;;;;6.95;3.45;;;19.30;92.60;;;;;;5097444;28;20474;-71
2022/09/05 00:41:18;;;;;;;5.18;3.20;;;19.40;92.60;;;;;;5116675;28;20048;-72
2022/09/05 00:43:49;;;;;;;7.30;3.45;;;19.30;92.60;;;;;;5098155;28;20054;-72
2022/09/05 00:46:21;;;;;;;5.28;3.35;;;19.30;92.80;;;;;;5097357;28;20183;-71
2022/09/05 00:48:54;;;;;;;4.47;3.17;;;19.30;92.90;;;;;;5115990;28;20054;-71
2022/09/05 00:51:32;;;;;;;3.80;3.30;;;19.20;93.00;;;;;;5098146;28;20093;-72
2022/09/05 00:54:47;;;;;;;6.18;3.78;;;19.20;93.70;;;;;;5097319;28;20155;-72
2022/09/05 00:57:46;;;;;;;5.00;3.13;;;19.20;93.40;;;;;;5016390;28;20054;-72
2022/09/05 01:00:18;;;;;;;7.40;3.47;;;19.10;93.70;;;;;;5096581;28;20078;-72
2022/09/05 01:03:09;;;;;;;4.97;3.70;;;19.10;93.40;;;;;;5097863;28;20376;-71
2022/09/05 01:05:42;;;;;;;;;;;19.10;93.90;;;;;;5098102;28;20087;-71
2022/09/05 01:08:27;;;;;;;4.95;3.53;;;19.00;94.00;;;;;;5114645;28;20328;-72
2022/09/05 01:11:04;;;;;;;7.70;3.30;;;19.00;94.20;;;;;;5114597;28;20570;-72
2022/09/05 01:13:39;;;;;;;8.38;4.85;;;19.00;93.70;;;;;;5115183;28;20105;-73
2022/09/05 01:16:15;;;;;;;5.65;3.53;;;19.00;93.90;;;;;;5097167;28;20047;-73
2022/09/05 01:18:56;;;;;;;5.93;3.30;;;18.90;94.40;;;;;;5115790;28;20076;-72
2022/09/05 01:21:41;;;;;;;9.98;4.03;;;18.90;94.20;;;;;;5114881;28;20524;-72
2022/09/05 01:24:40;;;;;;;6.97;3.67;;;18.90;94.70;;;;;;5097358;28;20097;-72
2022/09/05 01:27:35;;;;;;;5.15;3.50;;;18.80;94.70;;;;;;5114604;28;20087;-72
2022/09/05 01:30:08;;;;;;;6.03;3.92;;;18.80;94.90;;;;;;5114863;28;20503;-73
2022/09/05 01:32:48;;;;;;;5.20;3.80;;;18.80;94.80;;;;;;5097097;28;20096;-72
2022/09/05 01:35:52;;;;;;;9.55;4.18;;;18.80;94.90;;;;;;5096319;28;20477;-71
2022/09/05 01:38:28;;;;;;;8.40;3.72;;;18.70;95.10;;;;;;5097087;28;20139;-71
2022/09/05 01:41:06;;;;;;;7.47;3.67;;;18.70;95.10;;;;;;5114976;28;20047;-71
2022/09/05 01:43:54;;;;;;;5.75;3.42;;;18.70;95.30;;;;;;5096870;28;20091;-70
2022/09/05 01:46:30;;;;;;;7.15;4.20;;;18.60;95.40;;;;;;5096924;28;20047;-71
2022/09/05 01:49:03;;;;;;;8.50;3.90;;;18.60;95.30;;;;;;5114027;28;20418;-71
2022/09/05 01:51:36;;;;;;;5.53;3.90;;;18.50;95.50;;;;;;5096508;28;20087;-71
2022/09/05 01:54:23;;;;;;;6.03;3.75;;;18.50;95.60;;;;;;5115057;28;20126;-71
2022/09/05 01:57:00;;;;;;;6.68;3.75;;;18.50;95.60;;;;;;5114121;28;20051;-72
2022/09/05 01:59:39;;;;;;;7.60;4.38;;;18.50;95.70;;;;;;5096928;28;20113;-72
2022/09/05 02:02:18;;;;;;;6.05;3.88;;;18.40;95.80;;;;;;5114227;28;20043;-70
2022/09/05 02:05:05;;;;;;;11.25;4.20;;;18.40;96.10;;;;;;5096303;28;20051;-72
2022/09/05 02:07:46;;;;;;;5.90;4.47;;;18.40;96.00;;;;;;5093400;28;20077;-72
2022/09/05 02:10:46;;;;;;;6.07;4.35;;;18.30;96.20;;;;;;5094769;28;20112;-72
2022/09/05 02:13:23;;;;;;;5.28;4.30;;;18.30;96.30;;;;;;5114773;28;20043;-72
2022/09/05 02:15:59;;;;;;;10.25;4.60;;;18.20;96.30;;;;;;5096455;28;20051;-71
2022/09/05 02:18:37;;;;;;;6.78;4.47;;;18.20;96.50;;;;;;5095497;28;20548;-72
2022/09/05 02:21:10;;;;;;;7.05;4.35;;;18.20;96.60;;;;;;5096185;28;20138;-72
2022/09/05 02:23:43;;;;;;;6.80;4.80;;;18.20;96.60;;;;;;5114036;28;20051;-71
2022/09/05 02:26:18;;;;;;;9.68;4.45;;;18.20;96.90;;;;;;5095687;28;20052;-71
2022/09/05 02:28:52;;;;;;;6.38;4.45;;;18.10;96.90;;;;;;5114140;28;20054;-71
2022/09/05 02:31:25;;;;;;;6.20;3.90;;;18.10;97.10;;;;;;5113560;28;20406;-72
2022/09/05 02:33:57;;;;;;;9.15;4.75;;;18.10;97.30;;;;;;5096381;28;20055;-71
2022/09/05 02:36:35;;;;;;;7.18;4.53;;;18.00;97.50;;;;;;5113999;28;20051;-73
2022/09/05 02:39:13;;;;;;;11.60;5.43;;;18.00;97.50;;;;;;5094888;28;20052;-73
2022/09/05 02:41:44;;;;;;;5.93;4.75;;;18.00;97.60;;;;;;5095789;28;20054;-72
2022/09/05 02:44:15;;;;;;;8.90;4.55;;;17.90;97.70;;;;;;5095696;28;20820;-73
2022/09/05 02:46:54;;;;;;;7.45;5.07;;;17.90;97.80;;;;;;5095126;28;20059;-73
2022/09/05 02:49:30;;;;;;;5.43;4.80;;;17.80;98.10;;;;;;5095727;28;20086;-72
2022/09/05 02:52:01;;;;;;;5.97;4.53;;;17.80;98.30;;;;;;5112908;28;20079;-73
2022/09/05 02:54:31;;;;;;;10.70;5.00;;;17.70;98.50;;;;;;5095615;28;20052;-71
2022/09/05 02:57:26;;;;;;;6.40;4.78;;;17.70;98.60;;;;;;5095701;28;20047;-70
2022/09/05 03:00:03;;;;;;;7.88;4.88;;;17.70;98.90;;;;;;5094867;28;20096;-71
2022/09/05 03:02:39;;;;;;;5.80;4.70;;;17.60;98.90;;;;;;5095585;28;20112;-71
2022/09/05 03:05:13;;;;;;;7.55;4.43;;;17.60;99.40;;;;;;5095687;28;20097;-71
2022/09/05 03:07:57;;;;;;;7.53;4.72;;;17.50;99.50;;;;;;5094898;28;20090;-71
2022/09/05 03:11:19;;;;;;;9.85;4.95;;;17.50;99.80;;;;;;5095186;28;20138;-71
2022/09/05 03:14:30;;;;;;;10.93;4.68;;;17.50;99.90;;;;;;5097856;28;20131;-71
2022/09/05 03:17:34;;;;;;;6.47;4.93;;;17.40;99.90;;;;;;5113374;28;20051;-71
2022/09/05 03:21:00;;;;;;;6.32;5.00;;;17.40;99.90;;;;;;5047524;28;20124;-71
2022/09/05 03:24:03;;;;;;;8.88;4.95;;;17.40;99.90;;;;;;5030806;28;20060;-71
2022/09/05 03:26:53;;;;;;;7.18;4.30;;;17.30;99.90;;;;;;5008588;28;20049;-71
2022/09/05 03:29:57;;;;;;;7.72;4.88;;;17.30;99.90;;;;;;5094773;28;20531;-71
2022/09/05 03:32:52;;;;;;;8.05;5.35;;;17.20;99.90;;;;;;5092154;28;20449;-71
2022/09/05 03:36:24;;;;;;;9.20;4.88;;;17.20;99.90;;;;;;5094426;28;20441;-72
2022/09/05 03:39:48;;;;;;;6.72;5.05;;;17.20;99.90;;;;;;5030370;28;20063;-72
2022/09/05 03:42:41;;;;;;;5.95;4.95;;;17.10;99.90;;;;;;5033301;28;20489;-68
2022/09/05 03:45:35;;;;;;;9.60;5.03;;;17.00;99.90;;;;;;5112976;28;20087;-72
2022/09/05 03:48:27;;;;;;;8.77;5.25;;;17.00;99.90;;;;;;5108353;28;20116;-72
2022/09/05 03:51:04;;;;;;;10.52;5.55;;;17.10;99.90;;;;;;5094653;28;20075;-71
2022/09/05 03:54:10;;;;;;;8.93;5.32;;;17.00;99.90;;;;;;5113211;28;20104;-72
2022/09/05 03:57:09;;;;;;;6.78;4.85;;;17.00;99.90;;;;;;5106910;28;20104;-72
2022/09/05 03:59:52;;;;;;;8.65;4.95;;;17.00;99.90;;;;;;5094760;28;20047;-72
2022/09/05 04:02:23;;;;;;;9.27;5.53;;;17.00;99.90;;;;;;5093286;28;20056;-71
2022/09/05 04:04:59;;;;;;;7.53;5.32;;;17.00;99.90;;;;;;5113093;28;20044;-71
2022/09/05 04:07:30;;;;;;;7.13;5.22;;;16.90;99.90;;;;;;5095023;28;20059;-71
2022/09/05 04:10:01;;;;;;;8.50;5.40;;;16.90;99.90;;;;;;5094039;28;20517;-71
2022/09/05 04:12:34;;;;;;;8.23;5.38;;;16.90;99.90;;;;;;5113016;28;20058;-71
2022/09/05 04:15:07;;;;;;;8.60;4.78;;;16.90;99.90;;;;;;5113034;28;20052;-73
2022/09/05 04:17:37;;;;;;;8.27;5.28;;;16.90;99.90;;;;;;5112186;28;20078;-74
2022/09/05 04:20:11;;;;;;;8.98;5.20;;;16.80;99.90;;;;;;5112308;28;20579;-74
2022/09/05 04:23:04;;;;;;;6.82;5.78;;;16.80;99.90;;;;;;5094155;28;20059;-73
2022/09/05 04:25:45;;;;;;;10.68;5.40;;;16.80;99.90;;;;;;5094645;28;20043;-72
2022/09/05 04:28:21;;;;;;;8.07;5.18;;;16.80;99.90;;;;;;5094304;28;20064;-72
2022/09/05 04:30:58;;;;;;;12.48;5.88;;;16.80;99.90;;;;;;5093537;28;20089;-71
2022/09/05 04:33:30;;;;;;;7.88;5.40;;;16.60;99.90;;;;;;5112791;28;20459;-73
2022/09/05 04:36:06;;;;;;;7.72;5.38;;;16.70;99.90;;;;;;5116436;28;20415;-73
2022/09/05 04:38:38;;;;;;;12.60;5.80;;;16.70;99.90;;;;;;5097668;28;20060;-73
2022/09/05 04:41:09;;;;;;;7.90;5.50;;;16.70;99.90;;;;;;5098234;28;20047;-73
2022/09/05 04:43:42;;;;;;;8.10;5.68;;;16.60;99.90;;;;;;5098198;28;20490;-73
2022/09/05 04:46:23;;;;;;;8.75;5.57;;;16.60;99.90;;;;;;5096896;28;20047;-72
2022/09/05 04:49:00;;;;;;;7.15;5.60;;;16.60;99.90;;;;;;5097572;28;20459;-73
2022/09/05 04:51:57;;;;;;;10.80;5.70;;;16.60;99.90;;;;;;5096251;27;20055;-71
2022/09/05 04:54:35;;;;;;;8.65;6.28;;;16.60;99.90;;;;;;5120661;27;20120;-71
2022/09/05 04:57:15;;;;;;;9.90;4.88;;;16.60;99.90;;;;;;5098825;28;20047;-70
2022/09/05 04:59:49;;;;;;;10.80;5.00;;;16.60;99.90;;;;;;5112988;28;20097;-70
2022/09/05 05:02:25;;;;;;;6.35;4.78;;;16.70;99.90;;;;;;5095352;28;20412;-68
2022/09/05 05:05:00;;;;;;;8.50;5.47;;;17.10;99.90;;;;;;5114570;28;20093;-70
2022/09/05 05:07:33;;;;;;;10.88;6.15;;;17.20;99.90;;;;;;5113416;28;20551;-70
2022/09/05 05:10:06;;;;;;;7.47;4.30;;;17.20;99.90;;;;;;5098562;27;20460;-71
2022/09/05 05:12:46;;;;;;;6.90;4.82;;;17.40;99.90;;;;;;5119213;27;20056;-71
2022/09/05 05:15:17;;;;;;;6.93;4.78;;;17.60;99.90;;;;;;5114734;28;20082;-71
2022/09/05 05:17:52;;;;;;;7.70;4.63;;;17.80;99.90;;;;;;5097670;28;20046;-72
2022/09/05 05:20:23;;;;;;;11.13;6.32;;;18.00;99.90;;;;;;5095195;28;20144;-70
2022/09/05 05:22:58;;;;;;;13.57;5.50;;;17.90;99.90;;;;;;5114440;28;20079;-71
2022/09/05 05:25:26;;;;;;;7.28;5.32;;;18.00;99.90;;;;;;5109012;28;20512;-72
2022/09/05 05:28:05;;;;;;;8.75;5.70;;;17.90;99.90;;;;;;5112421;28;20047;-70
2022/09/05 05:30:33;;;;;;;7.78;5.45;;;17.70;99.90;;;;;;5129671;27;20039;-70
2022/09/05 05:33:11;;;;;;;6.47;4.88;;;17.60;99.90;;;;;;5095248;28;20116;-71
2022/09/05 05:35:39;;;;;;;5.95;5.13;;;17.50;99.90;;;;;;5094613;28;20063;-69
2022/09/05 05:38:14;;;;;;;5.50;4.55;;;17.50;99.90;;;;;;5100329;28;20402;-70
2022/09/05 05:40:48;;;;;;;6.85;4.90;;;17.60;99.90;;;;;;5094120;28;20051;-70
2022/09/05 05:43:16;;;;;;;6.63;5.65;;;17.60;99.90;;;;;;5101462;28;20108;-71
2022/09/05 05:45:43;;;;;;;6.88;4.70;;;17.80;99.90;;;;;;5095121;28;20159;-71
2022/09/05 05:48:29;;;;;;;8.02;4.75;;;17.90;99.90;;;;;;5112291;28;20089;-72
2022/09/05 05:51:16;;;;;;;7.95;5.38;;;17.90;99.90;;;;;;5113159;28;20051;-71
2022/09/05 05:53:53;;;;;;;9.95;4.40;;;18.00;99.90;;;;;;5118564;27;20498;-70
2022/09/05 05:56:50;;;;;;;6.43;4.90;;;18.00;99.90;;;;;;5117569;27;20047;-70
2022/09/05 05:59:49;;;;;;;6.40;5.28;;;18.10;99.90;;;;;;5099887;28;20097;-70
2022/09/05 06:02:41;;;;;;;6.07;4.85;;;18.20;99.90;;;;;;5110406;27;20051;-69
2022/09/05 06:05:36;;;;;;;9.40;6.03;;;18.30;99.90;;;;;;5096081;28;20059;-70
2022/09/05 06:08:33;;;;;;;8.75;5.57;;;18.40;99.90;;;;;;5097285;28;20092;-69
2022/09/05 06:11:22;;;;;;;7.70;5.40;;;18.40;99.90;;;;;;5096192;28;20084;-70
2022/09/05 06:14:22;;;;;;;8.02;5.72;;;18.40;99.90;;;;;;5116315;27;20047;-69
2022/09/05 06:17:02;;;;;;;9.10;5.65;;;18.40;99.90;;;;;;5093465;28;20517;-69
2022/09/05 06:20:01;;;;;;;8.43;5.53;;;18.40;99.90;;;;;;5115334;27;20498;-70
2022/09/05 06:23:18;;;;;;;7.68;5.45;;;18.50;99.90;;;;;;5082611;28;20313;-69
2022/09/05 06:26:11;;;;;;;7.80;4.85;;;19.10;99.90;;;;;;5094314;28;20073;-69
2022/09/05 06:28:54;;;;;;;5.60;5.00;;;20.20;99.70;;;;;;5106798;27;20593;-70
2022/09/05 06:31:36;;;;;;;7.80;5.03;;;21.10;97.20;;;;;;5111422;28;20132;-70
2022/09/05 06:34:25;;;;;;;7.38;5.32;;;22.00;94.30;;;;;;5112211;28;20094;-71
2022/09/05 06:36:59;;;;;;;7.00;5.13;;;22.60;92.60;;;;;;5093613;28;20120;-70
2022/09/05 06:39:41;;;;;;;6.88;5.18;;;23.10;91.40;;;;;;5093365;28;20135;-70
2022/09/05 06:42:21;;;;;;;7.72;5.22;;;23.70;90.40;;;;;;5112064;28;20052;-69
2022/09/05 06:45:05;;;;;;;6.80;4.70;;;24.10;89.00;;;;;;5093021;28;20305;-71
2022/09/05 06:47:35;;;;;;;9.90;4.93;;;24.60;85.60;;;;;;5091860;28;20058;-70
2022/09/05 06:50:10;;;;;;;13.07;5.38;;;25.00;86.00;;;;;;5111972;28;20440;-70
2022/09/05 06:53:19;;;;;;;5.22;4.53;;;25.50;84.10;;;;;;5100580;27;20093;-71
2022/09/05 06:56:14;;;;;;;7.22;4.43;;;26.10;80.60;;;;;;5094221;28;20055;-71
2022/09/05 06:59:20;;;;;;;5.90;4.70;;;26.30;79.90;;;;;;5110796;28;20082;-72
2022/09/05 07:01:56;;;;;;;7.13;4.97;;;26.80;79.70;;;;;;5093664;28;20044;-70
2022/09/05 07:04:33;;;;;;;7.88;4.65;;;26.90;78.80;;;;;;5114221;27;20043;-71
2022/09/05 07:07:22;;;;;;;6.25;4.47;;;26.60;77.10;;;;;;5112065;28;20056;-71
2022/09/05 07:09:58;;;;;;;8.63;4.65;;;26.40;77.40;;;;;;5093409;28;20135;-72
2022/09/05 07:12:30;;;;;;;8.05;4.50;;;26.20;79.60;;;;;;5114016;27;20039;-72
2022/09/05 07:15:11;;;;;;;7.00;4.40;;;26.50;79.00;;;;;;5115141;27;20042;-71
2022/09/05 07:17:47;;;;;;;4.45;3.78;;;26.60;77.00;;;;;;5115729;27;20059;-71
2022/09/05 07:20:21;;;;;;;4.93;3.88;;;26.80;78.70;;;;;;5111230;28;20048;-72
2022/09/05 07:22:55;;;;;;;10.65;4.63;;;27.40;77.00;;;;;;5095357;28;20506;-72
2022/09/05 07:25:26;;;;;;;6.90;4.93;;;27.70;76.40;;;;;;5112040;28;20047;-71
2022/09/05 07:27:58;;;;;;;12.07;4.55;;;27.60;76.40;;;;;;5112249;28;20079;-71
2022/09/05 07:30:26;;;;;;;5.53;4.07;;;28.30;75.80;;;;;;5112979;28;20075;-72
2022/09/05 07:32:55;;;;;;;6.85;3.83;;;29.00;74.80;;;;;;5112298;28;20076;-71
2022/09/05 07:35:28;;;;;;;6.28;4.07;;;29.40;73.80;;;;;;5112852;28;20040;-72
2022/09/05 07:38:05;;;;;;;4.97;3.75;;;29.40;73.00;;;;;;5113373;28;20047;-72
2022/09/05 07:40:38;;;;;;;9.45;4.13;;;29.70;70.70;;;;;;5111262;28;20048;-72
2022/09/05 07:43:09;;;;;;;5.78;4.10;;;29.80;71.50;;;;;;5112187;28;20109;-73
2022/09/05 07:45:42;;;;;;;6.15;4.05;;;29.90;71.00;;;;;;5112870;28;20056;-71
2022/09/05 07:48:15;;;;;;;6.60;4.35;;;30.30;71.10;;;;;;5112554;28;20083;-72
2022/09/05 07:50:50;;;;;;;6.93;3.95;;;30.10;69.90;;;;;;5111762;28;20050;-72
2022/09/05 07:53:18;;;;;;;11.43;4.13;;;30.50;69.10;;;;;;5113082;28;20047;-72
2022/09/05 07:55:50;;;;;;;7.05;4.35;;;30.90;69.70;;;;;;5112101;28;20047;-73
2022/09/05 07:58:20;;;;;;;6.20;3.90;;;31.40;69.20;;;;;;5094707;28;20569;-73
2022/09/05 08:00:53;;;;;;;6.30;3.88;;;31.30;68.50;;;;;;5094930;28;20189;-73
2022/09/05 08:03:26;;;;;;;6.68;3.95;;;31.80;68.00;;;;;;5094846;28;20055;-73
2022/09/05 08:05:56;;;;;;;5.47;4.13;;;31.80;67.60;;;;;;5094802;28;20047;-73
2022/09/05 08:08:28;;;;;;;5.63;4.03;;;32.10;67.70;;;;;;5112284;28;20463;-72
2022/09/05 08:10:58;;;;;;;5.38;3.40;;;32.30;67.30;;;;;;5106030;27;20130;-72
2022/09/05 08:13:42;;;;;;;5.85;3.40;;;32.80;67.00;;;;;;5136438;27;20539;-72
2022/09/05 08:16:13;;;;;;;7.47;4.38;;;33.00;65.60;;;;;;5136711;27;20043;-71
2022/09/05 08:18:45;;;;;;;5.32;3.92;;;32.70;66.10;;;;;;5137380;27;20055;-72
2022/09/05 08:21:22;;;;;;;3.80;3.40;;;32.90;66.00;;;;;;5115456;28;20051;-72
2022/09/05 08:23:58;;;;;;;7.53;4.07;;;33.20;65.90;;;;;;5115356;28;20055;-72
2022/09/05 08:26:35;;;;;;;8.77;3.47;;;32.60;65.50;;;;;;5098232;28;20124;-72
2022/09/05 08:29:10;;;;;;;5.50;3.50;;;32.60;65.30;;;;;;5115571;28;20486;-73
2022/09/05 08:31:44;;;;;;;5.68;3.65;;;33.00;64.80;;;;;;5097898;28;20039;-73
2022/09/05 08:34:17;;;;;;;7.57;4.00;;;32.90;65.30;;;;;;5116279;28;20556;-71
2022/09/05 08:36:47;;;;;;;7.68;3.67;;;32.50;64.70;;;;;;5115735;28;20051;-72
2022/09/05 08:39:18;;;;;;;5.32;4.00;;;31.90;66.50;;;;;;5097894;28;20104;-72
2022/09/05 08:42:07;;;;;;;5.15;3.60;;;31.80;67.10;;;;;;5098391;28;20052;-71
2022/09/05 08:44:40;;;;;;;4.63;3.67;;;32.10;66.60;;;;;;5096989;28;20151;-72
2022/09/05 08:47:18;;;;;;;6.38;3.47;;;32.40;66.60;;;;;;5098109;28;20487;-70
2022/09/05 08:50:36;;;;;;;4.53;3.80;;;32.50;65.90;;;;;;5097820;28;20051;-70
2022/09/05 08:53:13;;;;;;;6.13;3.60;;;32.60;65.30;;;;;;5097892;28;20047;-74
2022/09/05 08:55:47;;;;;;;7.03;3.60;;;33.00;65.40;;;;;;5098029;28;20093;-74
2022/09/05 08:58:51;;;;;;;3.67;3.03;;;33.30;65.10;;;;;;5096851;28;20090;-74
2022/09/05 09:01:28;;;;;;;5.60;3.30;;;33.70;64.60;;;;;;5097673;28;20110;-74
2022/09/05 09:04:11;;;;;;;3.80;2.90;;;34.30;64.60;;;;;;5116120;28;20453;-75
2022/09/05 09:06:57;;;;;;;8.88;3.80;;;35.10;63.20;;;;;;5097604;28;20455;-74
2022/09/05 09:09:42;;;;;;;7.28;3.08;;;35.60;62.60;;;;;;5115648;28;20051;-74
2022/09/05 09:12:22;;;;;;;5.68;2.92;;;35.50;61.80;;;;;;5115014;28;20108;-75
2022/09/05 09:14:56;;;;;;;5.30;3.05;;;35.80;62.50;;;;;;5114655;28;20100;-74
2022/09/05 09:17:41;;;;;;;6.13;3.13;;;36.00;61.60;;;;;;5114509;28;20051;-76
2022/09/05 09:20:45;;;;;;;8.23;3.10;;;36.10;62.10;;;;;;5113179;28;20074;-75
2022/09/05 09:23:25;;;;;;;3.42;2.70;;;36.40;61.10;;;;;;5083571;27;20055;-74
2022/09/05 09:26:05;;;;;;;6.82;2.88;;;36.80;61.50;;;;;;5114944;28;20100;-75
2022/09/05 09:28:45;;;;;;;3.97;3.03;;;36.50;60.90;;;;;;5114758;28;20047;-75
2022/09/05 09:31:17;;;;;;;5.57;2.70;;;36.20;61.30;;;;;;5114021;27;20104;-76
2022/09/05 09:33:52;;;;;;;7.70;2.83;;;36.10;61.90;;;;;;5112948;27;20076;-75
2022/09/05 09:36:41;;;;;;;5.65;2.55;;;36.20;61.80;;;;;;5096632;28;20051;-76
2022/09/05 09:39:30;;;;;;;5.82;2.55;;;36.10;61.10;;;;;;5115266;27;20056;-75
2022/09/05 09:42:30;;;;;;;5.57;2.63;;;36.40;60.60;;;;;;5094762;28;20394;-75
2022/09/05 09:45:21;;;;;;;5.80;2.88;;;36.80;61.00;;;;;;5107749;28;20422;-74
2022/09/05 09:48:11;;;;;;;5.05;2.33;;;36.80;59.70;;;;;;5093948;28;20048;-74
2022/09/05 09:51:01;;;;;;;4.45;2.30;;;36.80;59.90;;;;;;5113796;28;20032;-74
2022/09/05 09:53:41;;;;;;;5.70;2.60;;;36.90;59.70;;;;;;5112037;28;20047;-76
2022/09/05 09:56:37;;;;;;;5.35;2.60;;;36.90;59.80;;;;;;5114184;27;20047;-76
2022/09/05 09:59:20;;;;;;;6.13;2.20;;;36.70;59.90;;;;;;5114696;27;20102;-75
2022/09/05 10:01:57;;;;;;;6.53;2.45;;;36.90;59.80;;;;;;5112280;28;20618;-75
2022/09/05 10:04:54;;;;;;;5.90;2.22;;;36.70;59.50;;;;;;5100247;28;20502;-75
2022/09/05 10:08:04;;;;;;;4.65;2.40;;;36.50;60.00;;;;;;5113613;27;20040;-74
2022/09/05 10:10:55;;;;;;;8.13;2.63;;;36.70;60.60;;;;;;5102122;27;20055;-75
2022/09/05 10:13:36;;;;;;;5.70;2.28;;;36.90;59.80;;;;;;5095999;28;20055;-75
2022/09/05 10:16:38;;;;;;;5.22;2.10;;;37.20;59.80;;;;;;5113254;28;20074;-75
2022/09/05 10:19:32;;;;;;;3.58;2.20;;;36.80;58.80;;;;;;5095057;28;20051;-75
2022/09/05 10:22:15;;;;;;;4.88;1.98;;;36.90;59.50;;;;;;5099142;27;20088;-75
2022/09/05 10:25:40;;;;;;;8.68;2.28;;;37.00;59.10;;;;;;5115126;27;20048;-75
2022/09/05 10:28:14;;;;;;;3.42;2.00;;;37.10;58.30;;;;;;5055579;28;20401;-75
2022/09/05 10:30:46;;;;;;;5.20;1.90;;;37.30;58.70;;;;;;5032772;28;20179;-74
2022/09/05 10:33:38;;;;;;;4.43;1.98;;;36.90;58.60;;;;;;5081547;28;20043;-74
2022/09/05 10:36:22;;;;;;;7.07;2.08;;;37.30;58.30;;;;;;5111071;28;20058;-75
2022/09/05 10:38:59;;;;;;;3.33;1.70;;;37.80;57.60;;;;;;5093614;28;20047;-74
2022/09/05 10:41:38;;;;;;;3.50;1.63;;;38.20;57.50;;;;;;5124618;27;20074;-74
2022/09/05 10:44:08;;;;;;;4.15;1.40;;;38.20;57.50;;;;;;5097248;28;20054;-75
2022/09/05 10:46:46;;;;;;;3.97;1.60;;;38.60;56.90;;;;;;5121790;27;20059;-75
2022/09/05 10:49:15;;;;;;;8.60;1.80;;;38.30;56.90;;;;;;5123622;27;20047;-75
2022/09/05 10:51:48;;;;;;;4.35;1.80;;;38.60;56.90;;;;;;5122310;27;20079;-75
2022/09/05 10:54:27;;;;;;;4.20;1.73;;;38.60;56.80;;;;;;5112680;27;20050;-76
2022/09/05 10:57:05;;;;;;;2.92;1.50;;;38.50;56.20;;;;;;5093277;28;20060;-76
2022/09/05 10:59:54;;;;;;;4.03;1.37;;;38.90;56.50;;;;;;5103563;28;20502;-75
2022/09/05 11:02:24;;;;;;;3.13;1.75;;;38.70;56.30;;;;;;5112567;28;20044;-77
2022/09/05 11:05:03;;;;;;;9.95;1.80;;;38.60;56.60;;;;;;5093954;28;20082;-74
2022/09/05 11:07:37;;;;;;;;;;;39.30;56.60;;;;;;5112164;28;20529;-75
2022/09/05 11:10:11;;;;;;;2.90;1.67;;;38.80;56.30;;;;;;5094202;28;19923;-74
2022/09/05 11:13:09;;;;;;;5.03;1.90;;;39.20;55.90;;;;;;5108416;27;20082;-74
2022/09/05 11:15:53;;;;;;;4.27;1.77;;;39.20;55.90;;;;;;5094053;28;20112;-75
2022/09/05 11:18:37;;;;;;;3.88;1.92;;;39.60;55.70;;;;;;5111866;28;20502;-76
2022/09/05 11:21:11;;;;;;;5.45;1.85;;;39.40;56.20;;;;;;5099974;28;20049;-75
2022/09/05 11:23:42;;;;;;;4.13;1.80;;;39.60;56.00;;;;;;5101036;28;20062;-76
2022/09/05 11:26:33;;;;;;;4.78;1.80;;;38.90;56.10;;;;;;5093266;28;20070;-74
2022/09/05 11:29:06;;;;;;;7.32;2.00;;;38.40;56.80;;;;;;5107819;28;20507;-76
2022/09/05 11:31:53;;;;;;;3.72;1.40;;;38.30;57.20;;;;;;5105232;28;20062;-76
2022/09/05 11:34:50;;;;;;;2.22;1.40;;;38.30;56.60;;;;;;5093315;28;20052;-74
2022/09/05 11:37:30;;;;;;;5.60;2.03;;;38.50;56.60;;;;;;5093021;28;20052;-76
2022/09/05 11:40:27;;;;;;;5.72;1.63;;;39.00;56.10;;;;;;5110050;28;20048;-75
2022/09/05 11:43:19;;;;;;;3.80;1.83;;;39.00;56.40;;;;;;5107591;28;20082;-75
2022/09/05 11:46:30;;;;;;;3.85;1.60;;;39.00;56.40;;;;;;5112187;28;20544;-74
2022/09/05 11:49:36;;;;;;;3.53;1.75;;;39.20;55.70;;;;;;5098800;28;20047;-76
2022/09/05 11:52:39;;;;;;;3.40;1.65;;;39.40;56.40;;;;;;5096541;28;20047;-75
2022/09/05 11:55:36;;;;;;;3.13;1.70;;;40.00;55.70;;;;;;5117446;27;20050;-76
2022/09/05 11:58:27;;;;;;;3.38;1.90;;;40.00;55.50;;;;;;5115625;27;20116;-76
2022/09/05 12:01:05;;;;;;;2.83;1.40;;;39.90;55.40;;;;;;5107257;28;20108;-76
2022/09/05 12:03:44;;;;;;;6.07;1.58;;;39.50;55.70;;;;;;5115376;27;20087;-76
2022/09/05 12:06:40;;;;;;;6.32;1.70;;;39.50;55.10;;;;;;5097225;28;20135;-76
2022/09/05 12:09:17;;;;;;;2.67;1.60;;;39.90;55.20;;;;;;5091203;27;20105;-76
2022/09/05 12:11:58;;;;;;;4.03;1.83;;;39.90;54.90;;;;;;5120689;27;20096;-76
2022/09/05 12:14:38;;;;;;;3.35;1.77;;;40.10;55.40;;;;;;5098124;27;20096;-76
2022/09/05 12:17:23;;;;;;;3.47;1.48;;;40.10;54.70;;;;;;5114861;28;20100;-75
2022/09/05 12:19:57;;;;;;;4.15;1.40;;;40.20;55.00;;;;;;5128832;27;20100;-75
2022/09/05 12:22:30;;;;;;;5.38;1.63;;;40.40;55.10;;;;;;5117869;27;20119;-77
2022/09/05 12:25:26;;;;;;;2.20;1.48;;;40.60;54.70;;;;;;5103919;28;20487;-76
2022/09/05 12:27:56;;;;;;;5.30;1.90;;;40.60;54.20;;;;;;5123896;27;20052;-76
2022/09/05 12:30:26;;;;;;;3.22;1.60;;;40.90;54.20;;;;;;5098928;28;20051;-76
2022/09/05 12:32:56;;;;;;;4.55;1.70;;;40.60;54.20;;;;;;5119716;27;20043;-76
2022/09/05 12:35:35;;;;;;;6.63;1.98;;;40.60;53.80;;;;;;5125221;27;20116;-76
2022/09/05 12:38:18;;;;;;;2.50;1.60;;;40.10;53.80;;;;;;5127189;27;20143;-75
2022/09/05 12:40:57;;;;;;;3.50;1.90;;;39.20;54.90;;;;;;5127493;27;20051;-76
2022/09/05 12:43:27;;;;;;;3.28;1.70;;;39.30;55.00;;;;;;5110198;27;20071;-76
2022/09/05 12:45:58;;;;;;;3.15;1.83;;;39.10;54.80;;;;;;5114424;28;20051;-76
2022/09/05 12:48:32;;;;;;;3.20;1.95;;;38.80;55.00;;;;;;5114182;28;20052;-75
2022/09/05 12:51:03;;;;;;;3.65;1.65;;;38.30;55.40;;;;;;5107803;28;20051;-74
2022/09/05 12:53:42;;;;;;;3.95;1.63;;;38.10;55.70;;;;;;5105752;27;20039;-75
2022/09/05 12:56:18;;;;;;;4.45;1.80;;;38.10;56.10;;;;;;5123973;27;20096;-74
2022/09/05 12:58:50;;;;;;;5.70;1.98;;;37.70;56.10;;;;;;5113559;28;20119;-74
2022/09/05 13:01:27;;;;;;;2.65;1.80;;;37.80;56.20;;;;;;5100024;28;20079;-74
2022/09/05 13:04:00;;;;;;;3.60;1.98;;;38.30;56.10;;;;;;5113664;27;20053;-74
2022/09/05 13:06:31;;;;;;;2.72;1.60;;;38.30;55.90;;;;;;5120076;27;20048;-73
2022/09/05 13:09:03;;;;;;;5.28;2.50;;;38.40;55.70;;;;;;5116917;27;20048;-73
2022/09/05 13:11:44;;;;;;;3.80;1.80;;;37.70;55.80;;;;;;5121316;27;20050;-74
2022/09/05 13:14:18;;;;;;;3.70;1.88;;;36.90;56.50;;;;;;5100591;28;20494;-73
2022/09/05 13:16:47;;;;;;;4.05;1.85;;;36.20;57.70;;;;;;5130524;27;20127;-73
2022/09/05 13:19:24;;;;;;;4.10;1.65;;;36.50;57.20;;;;;;5106039;27;20065;-73
2022/09/05 13:21:54;;;;;;;6.47;1.92;;;36.60;57.20;;;;;;5123701;27;20294;-74
2022/09/05 13:24:26;;;;;;;3.50;1.95;;;36.80;57.30;;;;;;5113478;28;20047;-73
2022/09/05 13:26:57;;;;;;;6.22;1.92;;;37.60;56.70;;;;;;5113013;28;20071;-73
2022/09/05 13:29:29;;;;;;;3.78;1.75;;;38.20;56.50;;;;;;5107460;27;20610;-73
2022/09/05 13:32:03;;;;;;;4.85;1.98;;;37.90;56.10;;;;;;5111380;28;20052;-73
2022/09/05 13:34:35;;;;;;;4.05;1.52;;;37.60;56.20;;;;;;5125386;27;20065;-72
2022/09/05 13:37:10;;;;;;;5.13;2.10;;;37.70;56.30;;;;;;5104699;28;20055;-73
2022/09/05 13:39:46;;;;;;;3.47;1.88;;;38.00;56.10;;;;;;5113469;28;20055;-73
2022/09/05 13:42:18;;;;;;;3.65;1.80;;;38.50;55.70;;;;;;5113756;27;20108;-73
2022/09/05 13:44:47;;;;;;;2.72;1.60;;;38.90;55.20;;;;;;5122100;27;20072;-73
2022/09/05 13:47:26;;;;;;;4.75;1.85;;;39.10;55.00;;;;;;5105945;28;20096;-74
2022/09/05 13:50:06;;;;;;;4.38;1.80;;;38.40;54.80;;;;;;5095333;28;20062;-73
2022/09/05 13:52:38;;;;;;;4.03;2.13;;;38.10;55.30;;;;;;5099655;28;20101;-73
2022/09/05 13:55:19;;;;;;;3.42;1.50;;;38.40;55.30;;;;;;5116830;27;20196;-74
2022/09/05 13:57:51;;;;;;;4.28;1.80;;;39.00;55.10;;;;;;5117520;27;20103;-72
2022/09/05 14:01:05;;;;;;;3.47;1.50;;;39.10;55.20;;;;;;5095804;28;20478;-74